createdAt,value
2023-03-29T00:01:37.764Z,1.00
2023-03-29T00:04:07.545Z,0.90
2023-03-29T00:06:39.662Z,1.00
2023-03-29T00:09:11.817Z,0.70
2023-03-29T00:11:44.254Z,0.80
2023-03-29T00:14:14.297Z,0.80
2023-03-29T00:16:47.235Z,0.93
2023-03-29T00:19:24.348Z,0.73
2023-03-29T00:21:58.472Z,0.95
2023-03-29T00:24:33.378Z,0.98
2023-03-29T00:27:03.261Z,1.13
2023-03-29T00:29:35.660Z,1.08
2023-03-29T00:32:08.686Z,1.33
2023-03-29T00:34:38.238Z,0.88
2023-03-29T00:37:09.269Z,1.05
2023-03-29T00:39:42.659Z,1.33
2023-03-29T00:42:18.366Z,1.00
2023-03-29T00:45:07.914Z,1.00
2023-03-29T00:48:03.337Z,1.05
2023-03-29T00:50:39.981Z,1.10
2023-03-29T00:53:15.549Z,1.20
2023-03-29T00:56:04.922Z,0.85
2023-03-29T00:59:01.950Z,0.95
2023-03-29T01:01:46.696Z,0.50
2023-03-29T01:04:26.364Z,1.10
2023-03-29T01:07:07.324Z,0.85
2023-03-29T01:09:42.654Z,0.80
2023-03-29T01:12:25.343Z,0.90
2023-03-29T01:15:00.483Z,0.80
2023-03-29T01:17:33.665Z,0.80
2023-03-29T01:20:31.406Z,0.52
2023-03-29T01:23:15.231Z,0.70
2023-03-29T01:26:22.482Z,0.80
2023-03-29T01:29:18.504Z,1.00
2023-03-29T01:31:53.340Z,1.30
2023-03-29T01:34:33.858Z,1.20
2023-03-29T01:40:06.767Z,0.95
2023-03-29T01:42:55.156Z,0.88
2023-03-29T01:45:40.336Z,0.70
2023-03-29T01:48:25.088Z,0.60
2023-03-29T01:51:01.990Z,1.00
2023-03-29T01:53:44.585Z,0.75
2023-03-29T01:56:22.172Z,1.00
2023-03-29T01:58:58.853Z,1.10
2023-03-29T02:01:33.887Z,1.00
2023-03-29T02:04:09.986Z,1.25
2023-03-29T02:06:41.227Z,1.25
2023-03-29T02:09:10.698Z,1.27
2023-03-29T02:11:43.175Z,1.23
2023-03-29T02:14:14.380Z,2.15
2023-03-29T02:16:46.797Z,1.00
2023-03-29T02:19:25.748Z,0.90
2023-03-29T02:22:05.798Z,1.42
2023-03-29T02:24:39.786Z,1.10
2023-03-29T02:27:09.797Z,1.00
2023-03-29T02:29:47.361Z,1.25
2023-03-29T02:32:27.840Z,1.30
2023-03-29T02:35:08.531Z,1.30
2023-03-29T02:37:44.826Z,1.30
2023-03-29T02:40:17.012Z,1.40
2023-03-29T02:42:47.970Z,0.98
2023-03-29T02:45:21.590Z,0.93
2023-03-29T02:47:58.490Z,1.05
2023-03-29T02:50:33.537Z,1.20
2023-03-29T02:53:12.255Z,1.75
2023-03-29T02:55:49.392Z,0.77
2023-03-29T02:58:29.163Z,1.60
2023-03-29T03:01:02.865Z,0.88
2023-03-29T03:03:32.385Z,1.67
2023-03-29T03:06:03.069Z,1.15
2023-03-29T03:08:32.914Z,0.90
2023-03-29T03:11:04.599Z,1.10
2023-03-29T03:13:33.977Z,1.02
2023-03-29T03:16:05.996Z,1.10
2023-03-29T03:18:35.132Z,1.13
2023-03-29T03:21:05.099Z,1.20
2023-03-29T03:23:34.274Z,1.10
2023-03-29T03:26:06.169Z,0.95
2023-03-29T03:28:39.670Z,1.20
2023-03-29T03:31:15.765Z,0.98
2023-03-29T03:34:11.997Z,0.93
2023-03-29T03:37:09.094Z,1.50
2023-03-29T03:39:40.228Z,1.13
2023-03-29T03:42:14.009Z,1.00
2023-03-29T03:44:48.365Z,1.02
2023-03-29T03:47:43.574Z,0.90
2023-03-29T03:50:35.876Z,1.30
2023-03-29T03:53:08.050Z,1.10
2023-03-29T03:55:59.417Z,1.00
2023-03-29T03:58:40.573Z,0.80
2023-03-29T04:01:13.751Z,0.90
2023-03-29T04:03:53.712Z,1.33
2023-03-29T04:06:23.929Z,0.90
2023-03-29T04:09:14.370Z,1.50
2023-03-29T04:11:53.695Z,1.50
2023-03-29T04:14:23.010Z,1.00
2023-03-29T04:17:21.717Z,0.95
2023-03-29T04:20:12.398Z,0.95
2023-03-29T04:22:42.860Z,1.20
2023-03-29T04:27:53.299Z,1.13
2023-03-29T04:30:49.565Z,1.20
2023-03-29T04:33:42.051Z,1.05
2023-03-29T04:36:12.297Z,1.00
2023-03-29T04:38:55.565Z,1.25
2023-03-29T04:41:53.353Z,0.90
2023-03-29T04:44:30.251Z,1.23
2023-03-29T04:47:07.239Z,1.23
2023-03-29T04:49:57.776Z,1.10
2023-03-29T04:52:47.688Z,1.17
2023-03-29T04:55:17.357Z,1.13
2023-03-29T04:57:58.518Z,1.00
2023-03-29T05:00:36.384Z,1.20
2023-03-29T05:03:38.126Z,1.00
2023-03-29T05:06:18.651Z,1.33
2023-03-29T05:08:53.906Z,1.20
2023-03-29T05:11:43.687Z,1.10
2023-03-29T05:14:21.437Z,1.10
2023-03-29T05:16:58.118Z,1.00
2023-03-29T05:19:32.483Z,1.50
2023-03-29T05:22:02.782Z,1.35
2023-03-29T05:24:35.875Z,1.33
2023-03-29T05:27:17.587Z,1.25
2023-03-29T05:29:58.914Z,1.60
2023-03-29T05:32:50.067Z,1.17
2023-03-29T05:35:26.895Z,1.08
2023-03-29T05:38:05.051Z,1.10
2023-03-29T05:40:42.260Z,1.13
2023-03-29T05:43:34.948Z,1.00
2023-03-29T05:46:04.990Z,1.00
2023-03-29T05:48:35.017Z,1.23
2023-03-29T05:51:05.365Z,1.25
2023-03-29T05:53:37.003Z,1.55
2023-03-29T05:58:41.728Z,1.08
2023-03-29T06:01:19.531Z,1.00
2023-03-29T06:04:01.280Z,0.93
2023-03-29T06:06:39.253Z,0.88
2023-03-29T06:09:11.279Z,1.20
2023-03-29T06:12:09.501Z,1.52
2023-03-29T06:14:42.596Z,1.23
2023-03-29T06:17:29.713Z,1.70
2023-03-29T06:20:02.594Z,0.85
2023-03-29T06:22:33.801Z,1.00
2023-03-29T06:25:03.194Z,0.95
2023-03-29T06:27:37.453Z,0.93
2023-03-29T06:30:10.897Z,1.30
2023-03-29T06:32:40.380Z,1.10
2023-03-29T06:35:27.788Z,1.00
2023-03-29T06:38:08.669Z,0.98
2023-03-29T06:41:08.461Z,0.75
2023-03-29T06:43:58.812Z,1.30
2023-03-29T06:46:38.169Z,0.98
2023-03-29T06:49:14.090Z,1.20
2023-03-29T06:52:01.530Z,0.75
2023-03-29T06:54:31.565Z,1.30
2023-03-29T06:57:05.983Z,1.10
2023-03-29T06:59:36.244Z,0.80
2023-03-29T07:02:34.145Z,0.90
2023-03-29T07:05:13.918Z,0.90
2023-03-29T07:08:09.010Z,1.10
2023-03-29T07:10:53.774Z,0.80
2023-03-29T07:13:46.792Z,1.25
2023-03-29T07:16:25.876Z,0.90
2023-03-29T07:19:17.524Z,1.10
2023-03-29T07:22:19.224Z,1.00
2023-03-29T07:24:53.743Z,1.00
2023-03-29T07:27:26.269Z,1.17
2023-03-29T07:29:59.240Z,0.88
2023-03-29T07:32:32.231Z,0.80
2023-03-29T07:35:14.035Z,1.05
2023-03-29T07:37:45.823Z,1.13
2023-03-29T07:40:19.731Z,1.00
2023-03-29T07:42:59.345Z,1.08
2023-03-29T07:45:35.611Z,0.98
2023-03-29T07:48:15.139Z,1.17
2023-03-29T07:51:03.430Z,0.93
2023-03-29T07:53:46.261Z,0.90
2023-03-29T07:56:48.217Z,0.93
2023-03-29T07:59:20.461Z,0.80
2023-03-29T08:01:57.232Z,0.98
2023-03-29T08:04:57.418Z,1.13
2023-03-29T08:07:32.027Z,1.00
2023-03-29T08:10:27.247Z,1.00
2023-03-29T08:13:35.208Z,1.30
2023-03-29T08:19:15.368Z,1.55
2023-03-29T08:22:01.624Z,1.10
2023-03-29T08:24:42.921Z,1.50
2023-03-29T08:27:12.223Z,0.95
2023-03-29T08:29:48.709Z,1.00
2023-03-29T08:32:18.676Z,1.58
2023-03-29T08:34:47.991Z,1.55
2023-03-29T08:37:21.538Z,1.25
2023-03-29T08:39:52.972Z,1.05
2023-03-29T08:42:46.975Z,1.00
2023-03-29T08:45:37.638Z,1.00
2023-03-29T08:48:27.190Z,1.15
2023-03-29T08:51:09.451Z,1.10
2023-03-29T08:53:46.770Z,1.00
2023-03-29T08:56:34.013Z,1.10
2023-03-29T08:59:23.098Z,1.15
2023-03-29T09:02:00.012Z,1.13
2023-03-29T09:04:37.022Z,1.33
2023-03-29T09:07:21.204Z,1.40
2023-03-29T09:09:51.460Z,1.20
2023-03-29T09:12:57.324Z,1.73
2023-03-29T09:15:40.638Z,1.80
2023-03-29T09:18:36.297Z,1.30
2023-03-29T09:21:17.881Z,1.45
2023-03-29T09:23:59.512Z,1.38
2023-03-29T09:27:01.709Z,1.20
2023-03-29T09:29:48.587Z,1.55
2023-03-29T09:32:30.209Z,1.67
2023-03-29T09:35:20.806Z,1.45
2023-03-29T09:37:53.089Z,1.58
2023-03-29T09:40:32.837Z,2.30
2023-03-29T09:43:20.538Z,1.70
2023-03-29T09:45:54.465Z,1.70
2023-03-29T09:48:33.278Z,1.85
2023-03-29T09:51:09.224Z,1.25
2023-03-29T09:53:45.556Z,1.42
2023-03-29T09:56:39.344Z,1.40
2023-03-29T09:59:15.973Z,1.52
2023-03-29T10:01:46.292Z,1.88
2023-03-29T10:04:22.283Z,1.35
2023-03-29T10:07:02.951Z,1.50
2023-03-29T10:09:36.726Z,1.67
2023-03-29T10:12:24.515Z,1.30
2023-03-29T10:15:03.325Z,1.40
2023-03-29T10:17:44.237Z,1.17
2023-03-29T10:20:20.680Z,1.17
2023-03-29T10:22:57.349Z,1.33
2023-03-29T10:25:42.529Z,1.50
2023-03-29T10:28:21.546Z,1.20
2023-03-29T10:30:56.968Z,2.35
2023-03-29T10:33:33.513Z,1.60
2023-03-29T10:36:08.743Z,1.67
2023-03-29T10:38:41.025Z,1.98
2023-03-29T10:41:20.568Z,1.42
2023-03-29T10:43:53.631Z,1.55
2023-03-29T10:46:43.532Z,1.45
2023-03-29T10:49:20.537Z,1.70
2023-03-29T10:51:53.451Z,1.80
2023-03-29T10:54:25.679Z,1.67
2023-03-29T10:57:08.774Z,1.70
2023-03-29T11:00:07.403Z,1.83
2023-03-29T11:03:06.578Z,1.63
2023-03-29T11:05:52.578Z,1.75
2023-03-29T11:08:24.315Z,1.55
2023-03-29T11:11:13.072Z,1.52
2023-03-29T11:13:59.958Z,1.80
2023-03-29T11:16:58.625Z,1.85
2023-03-29T11:19:53.711Z,1.83
2023-03-29T11:22:38.479Z,1.52
2023-03-29T11:25:30.821Z,1.65
2023-03-29T11:28:13.259Z,1.98
2023-03-29T11:31:01.122Z,1.80
2023-03-29T11:33:49.745Z,1.80
2023-03-29T11:36:50.908Z,1.85
2023-03-29T11:39:48.814Z,2.20
2023-03-29T11:42:24.163Z,2.03
2023-03-29T11:44:58.200Z,2.10
2023-03-29T11:47:33.921Z,1.85
2023-03-29T11:50:18.716Z,1.80
2023-03-29T11:52:56.502Z,2.25
2023-03-29T11:55:40.541Z,2.25
2023-03-29T11:58:27.510Z,1.70
2023-03-29T12:01:07.016Z,1.88
2023-03-29T12:03:58.630Z,1.77
2023-03-29T12:06:33.995Z,1.80
2023-03-29T12:09:21.587Z,1.80
2023-03-29T12:12:20.320Z,2.08
2023-03-29T12:15:07.878Z,1.90
2023-03-29T12:17:47.765Z,2.25
2023-03-29T12:20:28.202Z,1.75
2023-03-29T12:23:02.907Z,1.50
2023-03-29T12:25:58.496Z,2.08
2023-03-29T12:28:34.512Z,1.48
2023-03-29T12:31:21.819Z,1.90
2023-03-29T12:33:59.031Z,2.03
2023-03-29T12:37:20.358Z,2.35
2023-03-29T12:40:26.612Z,1.77
2023-03-29T12:43:40.960Z,1.90
2023-03-29T12:49:25.617Z,1.80
2023-03-29T12:54:31.899Z,2.10
2023-03-29T12:57:22.120Z,1.95
2023-03-29T12:59:57.277Z,2.05
2023-03-29T13:02:35.501Z,2.08
2023-03-29T13:05:26.991Z,2.30
2023-03-29T13:07:56.677Z,2.22
2023-03-29T13:10:37.906Z,2.05
2023-03-29T13:13:21.198Z,2.58
2023-03-29T13:15:56.482Z,1.63
2023-03-29T13:18:42.800Z,1.88
2023-03-29T13:21:21.496Z,1.77
2023-03-29T13:24:35.051Z,2.05
2023-03-29T13:27:27.152Z,1.95
2023-03-29T13:30:30.650Z,1.65
2023-03-29T13:33:37.666Z,1.50
2023-03-29T13:36:17.036Z,1.98
2023-03-29T13:38:57.931Z,1.60
2023-03-29T13:41:40.659Z,1.55
2023-03-29T13:44:37.412Z,1.90
2023-03-29T13:47:38.478Z,1.77
2023-03-29T13:50:20.256Z,1.50
2023-03-29T13:52:58.970Z,1.50
2023-03-29T13:55:42.862Z,1.60
2023-03-29T13:58:35.823Z,1.33
2023-03-29T14:01:33.281Z,1.17
2023-03-29T14:04:07.408Z,1.42
2023-03-29T14:06:43.727Z,1.50
2023-03-29T14:11:54.082Z,1.67
2023-03-29T14:14:28.733Z,1.48
2023-03-29T14:16:59.741Z,1.10
2023-03-29T14:19:29.470Z,1.38
2023-03-29T14:22:03.485Z,1.42
2023-03-29T14:24:41.874Z,1.35
2023-03-29T14:27:14.751Z,1.30
2023-03-29T14:29:50.046Z,1.65
2023-03-29T14:32:35.485Z,1.60
2023-03-29T14:35:06.288Z,1.60
2023-03-29T14:37:35.989Z,1.83
2023-03-29T14:40:13.170Z,2.20
2023-03-29T14:42:49.211Z,1.90
2023-03-29T14:45:25.056Z,1.90
2023-03-29T14:47:59.821Z,2.33
2023-03-29T14:50:32.011Z,2.92
2023-03-29T14:53:05.779Z,1.88
2023-03-29T14:55:39.343Z,1.85
2023-03-29T14:58:30.423Z,1.73
2023-03-29T15:01:16.987Z,1.83
2023-03-29T15:03:54.718Z,1.45
2023-03-29T15:06:30.232Z,1.50
2023-03-29T15:09:06.516Z,1.17
2023-03-29T15:11:40.409Z,1.45
2023-03-29T15:14:17.729Z,2.00
2023-03-29T15:16:49.576Z,1.70
2023-03-29T15:19:26.690Z,1.73
2023-03-29T15:21:59.952Z,1.70
2023-03-29T15:24:34.665Z,1.95
2023-03-29T15:27:14.043Z,2.00
2023-03-29T15:29:48.072Z,1.80
2023-03-29T15:32:25.750Z,1.98
2023-03-29T15:35:00.657Z,1.75
2023-03-29T15:37:35.070Z,2.28
2023-03-29T15:40:10.310Z,2.00
2023-03-29T15:42:44.210Z,1.50
2023-03-29T15:45:22.868Z,1.75
2023-03-29T15:47:57.666Z,2.25
2023-03-29T15:50:28.997Z,1.63
2023-03-29T15:53:14.257Z,1.80
2023-03-29T15:56:06.216Z,1.83
2023-03-29T15:58:36.349Z,1.73
2023-03-29T16:01:43.315Z,1.90
2023-03-29T16:04:17.112Z,1.83
2023-03-29T16:06:52.330Z,1.60
2023-03-29T16:09:25.827Z,3.40
2023-03-29T16:12:01.802Z,1.63
2023-03-29T16:17:09.008Z,1.70
2023-03-29T16:19:38.550Z,1.63
2023-03-29T16:22:12.421Z,1.70
2023-03-29T16:24:41.881Z,1.90
2023-03-29T16:27:18.418Z,1.70
2023-03-29T16:29:49.421Z,2.22
2023-03-29T16:32:18.478Z,1.60
2023-03-29T16:34:50.092Z,1.65
2023-03-29T16:37:19.214Z,1.73
2023-03-29T16:39:51.553Z,2.05
2023-03-29T16:42:24.304Z,1.70
2023-03-29T16:44:54.985Z,1.50
2023-03-29T16:47:24.870Z,1.85
2023-03-29T16:49:54.464Z,1.65
2023-03-29T16:52:23.752Z,2.00
2023-03-29T16:54:53.554Z,2.10
2023-03-29T16:57:27.364Z,2.00
2023-03-29T16:59:59.134Z,2.50
2023-03-29T17:02:28.519Z,2.10
2023-03-29T17:04:57.943Z,2.30
2023-03-29T17:07:30.231Z,2.08
2023-03-29T17:09:59.847Z,2.05
2023-03-29T17:12:29.317Z,2.15
2023-03-29T17:15:00.178Z,1.70
2023-03-29T17:17:31.233Z,1.90
2023-03-29T17:20:09.102Z,1.52
2023-03-29T17:22:39.448Z,1.58
2023-03-29T17:25:19.486Z,1.95
2023-03-29T17:27:49.667Z,1.73
2023-03-29T17:30:23.529Z,1.50
2023-03-29T17:32:55.848Z,1.73
2023-03-29T17:35:25.553Z,1.85
2023-03-29T17:37:59.364Z,2.25
2023-03-29T17:40:32.325Z,2.45
2023-03-29T17:43:05.210Z,2.00
2023-03-29T17:45:41.650Z,1.50
2023-03-29T17:48:14.911Z,1.30
2023-03-29T17:50:44.557Z,1.48
2023-03-29T17:53:17.185Z,3.45
2023-03-29T17:55:50.108Z,1.63
2023-03-29T17:58:23.616Z,1.48
2023-03-29T18:00:52.985Z,1.50
2023-03-29T18:03:24.671Z,1.60
2023-03-29T18:05:57.084Z,1.65
2023-03-29T18:08:26.487Z,1.60
2023-03-29T18:10:55.966Z,2.22
2023-03-29T18:13:26.077Z,1.52
2023-03-29T18:15:57.227Z,2.08
2023-03-29T18:18:27.765Z,1.63
2023-03-29T18:21:00.184Z,1.63
2023-03-29T18:23:32.134Z,1.63
2023-03-29T18:26:06.314Z,1.50
2023-03-29T18:28:42.020Z,1.10
2023-03-29T18:31:14.401Z,1.63
2023-03-29T18:33:43.604Z,1.55
2023-03-29T18:36:16.707Z,1.70
2023-03-29T18:38:49.543Z,1.70
2023-03-29T18:41:19.054Z,1.70
2023-03-29T18:43:50.095Z,1.90
2023-03-29T18:46:22.145Z,1.85
2023-03-29T18:48:51.847Z,1.83
2023-03-29T18:51:23.574Z,1.60
2023-03-29T18:53:54.445Z,2.00
2023-03-29T18:56:24.312Z,1.73
2023-03-29T18:58:56.222Z,1.60
2023-03-29T19:01:28.139Z,1.70
2023-03-29T19:04:02.744Z,1.73
2023-03-29T19:06:32.324Z,1.52
2023-03-29T19:09:11.114Z,2.10
2023-03-29T19:11:40.253Z,1.50
2023-03-29T19:14:12.434Z,1.65
2023-03-29T19:16:42.764Z,1.67
2023-03-29T19:19:13.300Z,1.45
2023-03-29T19:21:45.077Z,1.40
2023-03-29T19:24:14.854Z,1.50
2023-03-29T19:26:50.481Z,1.50
2023-03-29T19:29:19.875Z,1.40
2023-03-29T19:31:51.411Z,1.60
2023-03-29T19:34:22.877Z,1.80
2023-03-29T19:36:54.073Z,1.58
2023-03-29T19:39:28.562Z,1.73
2023-03-29T19:42:00.376Z,1.90
2023-03-29T19:44:29.533Z,1.90
2023-03-29T19:47:01.618Z,1.60
2023-03-29T19:49:39.196Z,1.92
2023-03-29T19:52:14.377Z,2.00
2023-03-29T19:54:48.612Z,1.50
2023-03-29T19:57:18.582Z,1.48
2023-03-29T19:59:54.594Z,1.70
2023-03-29T20:02:26.788Z,1.70
2023-03-29T20:04:58.221Z,1.48
2023-03-29T20:07:32.447Z,1.70
2023-03-29T20:10:04.269Z,1.90
2023-03-29T20:12:37.367Z,1.48
2023-03-29T20:15:10.585Z,1.80
2023-03-29T20:17:44.509Z,1.48
2023-03-29T20:20:19.613Z,1.88
2023-03-29T20:22:54.437Z,1.60
2023-03-29T20:25:23.706Z,1.77
2023-03-29T20:27:57.904Z,1.52
2023-03-29T20:30:27.729Z,1.65
2023-03-29T20:32:59.942Z,1.30
2023-03-29T20:35:31.879Z,1.60
2023-03-29T20:38:01.329Z,1.75
2023-03-29T20:40:30.708Z,1.50
2023-03-29T20:43:05.372Z,1.27
2023-03-29T20:45:51.600Z,1.67
2023-03-29T20:48:25.473Z,1.70
2023-03-29T20:50:55.903Z,1.52
2023-03-29T20:53:25.783Z,1.33
2023-03-29T20:56:00.664Z,1.52
2023-03-29T20:58:34.779Z,1.55
2023-03-29T21:01:06.383Z,1.50
2023-03-29T21:03:41.187Z,1.52
2023-03-29T21:06:14.569Z,1.55
2023-03-29T21:08:44.397Z,1.60
2023-03-29T21:11:16.868Z,1.20
2023-03-29T21:13:46.102Z,1.55
2023-03-29T21:16:16.329Z,1.13
2023-03-29T21:18:47.747Z,1.52
2023-03-29T21:21:23.218Z,1.30
2023-03-29T21:23:57.701Z,1.80
2023-03-29T21:26:27.633Z,1.38
2023-03-29T21:28:58.959Z,1.52
2023-03-29T21:31:30.393Z,1.33
2023-03-29T21:34:01.521Z,1.60
2023-03-29T21:36:30.682Z,1.40
2023-03-29T21:39:02.692Z,1.38
2023-03-29T21:41:32.444Z,1.50
2023-03-29T21:44:02.556Z,1.80
2023-03-29T21:46:32.075Z,1.35
2023-03-29T21:49:02.675Z,1.60
2023-03-29T21:51:33.855Z,1.45
2023-03-29T21:54:06.249Z,1.55
2023-03-29T21:56:40.283Z,1.50
2023-03-29T21:59:12.241Z,1.20
2023-03-29T22:01:42.235Z,1.70
2023-03-29T22:04:14.255Z,1.40
2023-03-29T22:06:49.938Z,1.65
2023-03-29T22:09:20.957Z,1.45
2023-03-29T22:11:50.700Z,1.63
2023-03-29T22:14:25.916Z,1.50
2023-03-29T22:16:57.447Z,1.45
2023-03-29T22:19:31.956Z,1.85
2023-03-29T22:22:07.831Z,1.52
2023-03-29T22:24:40.335Z,1.65
2023-03-29T22:27:15.548Z,1.33
2023-03-29T22:29:50.769Z,1.63
2023-03-29T22:32:19.890Z,1.70
2023-03-29T22:34:53.889Z,1.50
2023-03-29T22:37:23.502Z,1.60
2023-03-29T22:39:55.322Z,1.42
2023-03-29T22:42:29.135Z,1.20
2023-03-29T22:45:07.379Z,1.60
2023-03-29T22:47:38.972Z,1.38
2023-03-29T22:50:09.058Z,1.60
2023-03-29T22:52:38.879Z,1.52
2023-03-29T22:55:08.932Z,1.50
2023-03-29T22:57:38.904Z,1.65
2023-03-29T23:00:11.955Z,1.50
2023-03-29T23:02:41.733Z,1.30
2023-03-29T23:05:16.067Z,1.40
2023-03-29T23:07:48.540Z,1.70
2023-03-29T23:10:22.590Z,1.60
2023-03-29T23:12:54.609Z,1.45
2023-03-29T23:15:28.403Z,1.80
2023-03-29T23:18:05.110Z,1.85
2023-03-29T23:20:36.776Z,1.58
2023-03-29T23:23:16.382Z,1.50
2023-03-29T23:25:50.680Z,1.92
2023-03-29T23:28:27.703Z,1.70
2023-03-29T23:31:03.287Z,1.48
2023-03-29T23:33:39.128Z,1.48
2023-03-29T23:36:11.994Z,1.48
2023-03-29T23:38:42.701Z,1.70
2023-03-29T23:41:17.298Z,1.33
2023-03-29T23:43:51.063Z,1.15
2023-03-29T23:46:21.993Z,1.40
2023-03-29T23:48:56.427Z,1.52
2023-03-29T23:51:28.584Z,1.75
2023-03-29T23:54:05.487Z,1.55
2023-03-29T23:56:37.054Z,1.52
2023-03-29T23:59:10.754Z,1.60
